General Villegas, Argentina
Current Conditions -  °F | °C
As of 12:00 PM on Thursday 23 Oct 2014 (Local Time) from SAOC Reporting Station
Clear Clear  
Wind Chill: 91°   Ceiling: Unl
Heat Index: 91°   Visibility: 6mi
Dew Point: 52°   Wind: 7mph
Humidity: 26%   Direction: 360°N
Pressure: 29.91"   Gusts: NA
Location:  35.03°S, 63.02°W
Report Text: SAOC 231500Z 36006KT CAVOK 33/11 Q1013
Loading
Personal Weather Stations






























Interactive Weather Map
Tropical Storm Tracking
New forecast layout! Learn more

10-Day Weather Forecast

Advertisements
Track Severe Weather on mobile